Latest Coastal Weather Observations for Cocos Island

IDW60701

Issued at 1:43 pm WST Monday 19 February 2018 (issued every 10 minutes, with the page automatically refreshed every 10 minutes)

About coastal observations | Map of coastal stations | Coastal observations for WA | Marine services | Other Formats
Station Details ID: 200284 Name: COCOS ISLAND AIRPORT Lat: -12.19 Lon: 96.83 Height: 3.0 m
Data from the previous 72 hours. | See also: Recent months at Cocos Island
Date/Time
WST
Temp
°C
Wind Pressure Rain since
9am
mm
Weather Cloud Vis
km
Sea
Height
m
Swell
Dir  Spd
kts
Gust
kts
hPa Trend Height
m
Period
s
Dir
19/01:30pm 30.0 SSE 7 9 1009.4 - 0.0 - Mostly clear 10 - - - -
19/01:00pm 29.9 S 7 9 1009.6 - 0.0 - Mostly clear 10 - - - -
19/12:30pm 29.7 S 7 10 1009.8 - 0.0 - Mostly clear 10 - - - -
19/12:00pm 29.8 SSE 7 9 1010.1 - 0.0 - Mostly clear 10 - - - -
19/11:30am 29.5 SE 6 8 1010.4 - 0.0 - Mostly clear 10 - - - -
19/11:00am 29.5 SE 5 8 1010.5 - 0.0 - Mostly clear 10 - - - -
19/10:30am 29.3 SE 5 8 1010.6 - 0.0 - Mostly clear 10 - - - -
19/10:00am 29.1 SE 6 8 1010.7 - 0.0 - Mostly clear 10 - - - -
19/09:30am 28.5 SE 5 7 1010.5 - 0.0 - Mostly clear 10 - - - -
19/09:00am 28.2 ESE 4 7 1010.2 - 0.0 - Mostly clear 10 - - - -
19/08:30am 27.7 ESE 4 6 1010.1 - 0.0 - Mostly clear 10 - - - -
19/08:00am 26.7 ESE 4 6 1009.7 - 0.0 - Mostly clear 10 - - - -
19/07:30am 25.3 CALM 0 0 1009.6 - 0.0 - - 10 - - - -
19/07:00am 26.0 CALM 0 0 1009.5 - 0.0 - - 10 - - - -
19/06:30am 26.3 ESE 5 7 1009.4 - 0.0 - Partly cloudy 10 - - - -
19/06:00am 24.7 CALM 0 0 1009.2 - 0.0 - Partly cloudy 10 - - - -
19/05:30am 25.2 CALM 0 0 1009.2 - 0.0 - Partly cloudy 10 - - - -
19/05:00am 26.1 ESE 3 4 1009.0 - 0.0 - Mostly clear 10 - - - -
19/04:30am 26.4 SSE 5 6 1009.1 - 0.0 - Partly cloudy 10 - - - -
19/04:00am 26.0 SSE 4 5 1009.0 - 0.0 - Partly cloudy 10 - - - -
19/03:30am 26.3 SSE 5 6 1009.1 - 0.0 - - 10 - - - -
19/03:00am 26.3 SSE 5 7 1009.4 - 0.0 - Partly cloudy 10 - - - -
19/02:30am 26.2 SSE 5 7 1009.7 - 0.0 - Partly cloudy 10 - - - -
19/02:00am 26.8 SSE 6 8 1010.0 - 0.0 - Mostly cloudy 10 - - - -
19/01:30am 26.8 SSE 6 7 1010.5 - 0.0 - Partly cloudy 10 - - - -
19/01:00am 26.7 SSE 6 8 1010.7 - 0.0 - Partly cloudy 10 - - - -
19/12:30am 26.8 SSE 7 8 1010.9 - 0.0 - Partly cloudy 10 - - - -
19/12:00am 26.9 SSE 7 9 1011.1 - 0.0 - Partly cloudy 10 - - - -
 
Date/Time
WST
Temp
°C
Wind Pressure Rain since
9am
mm
Weather Cloud Vis
km
Sea
Height
m
Swell
Dir  Spd
kts
Gust
kts
hPa Trend Height
m
Period
s
Dir
18/11:30pm 26.6 SSE 6 9 1011.0 - 0.0 - Partly cloudy 10 - - - -
18/11:00pm 26.7 SSE 7 9 1010.7 - 0.0 - Mostly clear 10 - - - -
18/10:30pm 26.9 SSE 7 10 1010.5 - 0.0 - Partly cloudy 10 - - - -
18/10:00pm 26.9 SSE 8 12 1010.1 - 0.0 - Partly cloudy 10 - - - -
18/09:30pm 27.2 SSE 9 11 1009.8 - 0.0 - Partly cloudy 10 - - - -
18/09:00pm 26.9 SSE 8 11 1009.6 - 0.0 - Partly cloudy 10 - - - -
18/08:30pm 27.0 SSE 8 12 1009.5 - 0.0 - Partly cloudy 10 - - - -
18/08:00pm 27.3 S 10 12 1009.3 - 0.0 - Mostly clear 10 - - - -
18/07:30pm 27.9 S 9 12 1009.2 - 0.0 - Partly cloudy 10 - - - -
18/07:00pm 28.9 S 10 12 1009.0 - 0.0 - Partly cloudy 10 - - - -
18/06:30pm 28.8 S 10 12 1008.8 - 0.0 - Partly cloudy 10 - - - -
18/06:00pm 29.1 SSW 9 12 1008.6 - 0.0 - Partly cloudy 10 - - - -
18/05:30pm 29.3 SSW 8 11 1008.6 - 0.0 - - 10 - - - -
18/05:00pm 29.2 S 9 12 1008.5 - 0.0 - - 10 - - - -
18/04:30pm 29.7 SSW 7 10 1008.6 - 0.0 - - 10 - - - -
18/04:00pm 29.7 SSW 7 10 1008.6 - 0.0 - - 10 - - - -
18/03:54pm 29.2 SSW 8 11 1008.7 - 0.0 - - 10 - - - -
18/03:44pm 29.0 SSW 8 11 1008.8 - 0.0 - - 5 - - - -
18/03:30pm 28.7 SSW 9 11 1008.9 - 0.0 - - 10 - - - -
18/03:00pm 28.6 SSW 10 13 1009.1 - 0.0 - - 10 - - - -
18/02:30pm 28.9 S 14 17 1009.3 - 0.0 - - 10 - - - -
18/02:00pm 28.9 S 14 16 1009.5 - 0.0 - - 10 - - - -
18/01:30pm 28.5 S 11 15 1010.0 - 0.0 - Partly cloudy 10 - - - -
18/01:00pm 28.7 SSW 10 11 1010.2 - 0.0 - Partly cloudy 10 - - - -
18/12:30pm 29.4 S 9 13 1010.4 - 0.0 - - 10 - - - -
18/12:00pm 29.4 S 10 14 1010.4 - 0.0 - - 10 - - - -
18/11:30am 29.3 SSE 10 13 1010.3 - 0.0 - Partly cloudy 10 - - - -
18/11:00am 28.9 S 10 13 1010.2 - 0.0 - - 10 - - - -
18/10:30am 28.8 SSE 10 13 1010.2 - 0.0 - - 10 - - - -
18/10:00am 28.3 SSE 10 13 1010.1 - 0.0 - - 10 - - - -
18/09:30am 27.8 SSE 9 13 1009.8 - 0.0 - Partly cloudy 10 - - - -
18/09:00am 27.0 SSE 11 13 1009.6 - 0.0 - Partly cloudy 10 - - - -
18/08:30am 26.7 S 8 10 1009.4 - 0.0 - Partly cloudy 10 - - - -
18/08:00am 26.5 S 8 11 1008.9 - 0.0 - Partly cloudy 10 - - - -
18/07:30am 26.4 S 7 11 1008.8 - 0.0 - Partly cloudy 10 - - - -
18/07:00am 26.5 S 9 11 1008.5 - 0.0 - Partly cloudy 10 - - - -
18/06:30am 26.5 SSW 9 12 1008.4 - 0.0 - Partly cloudy 10 - - - -
18/06:08am 26.4 S 9 12 1008.3 - 0.0 - Partly cloudy 10 - - - -
18/06:00am 26.5 S 9 12 1008.3 - 0.0 - Partly cloudy 9 - - - -
18/05:52am 26.4 S 10 11 1008.3 - 0.0 - Partly cloudy 5 - - - -
18/05:30am 26.4 S 9 12 1008.2 - 0.0 - Partly cloudy 10 - - - -
18/05:00am 26.5 SSW 9 11 1008.0 - 0.0 - Partly cloudy 10 - - - -
18/04:30am 26.2 S 9 11 1008.3 - 0.0 - Partly cloudy 10 - - - -
18/04:00am 26.3 S 9 11 1008.3 - 0.0 - Partly cloudy 10 - - - -
18/03:30am 26.3 S 8 11 1008.5 - 0.0 - Partly cloudy 10 - - - -
18/03:00am 26.3 S 8 11 1008.8 - 0.0 - Partly cloudy 10 - - - -
18/02:30am 26.3 S 8 11 1009.2 - 0.0 - Partly cloudy 10 - - - -
18/02:00am 26.5 S 8 11 1009.5 - 0.0 - Mostly cloudy 10 - - - -
18/01:30am 26.6 S 9 11 1009.9 - 0.0 - Partly cloudy 10 - - - -
18/01:00am 26.6 S 9 11 1010.2 - 0.0 - Partly cloudy 10 - - - -
18/12:30am 26.5 S 8 10 1010.6 - 0.0 - - 10 - - - -
18/12:00am 26.5 S 8 10 1010.8 - 0.0 - Partly cloudy 10 - - - -
 
Date/Time
WST
Temp
°C
Wind Pressure Rain since
9am
mm
Weather Cloud Vis
km
Sea
Height
m
Swell
Dir  Spd
kts
Gust
kts
hPa Trend Height
m
Period
s
Dir
17/11:30pm 26.8 S 8 10 1010.8 - 0.0 - Cloudy 10 - - - -
17/11:00pm 26.7 S 8 10 1010.5 - 0.0 - Partly cloudy 10 - - - -
17/10:30pm 26.9 S 9 11 1010.5 - 0.0 - Partly cloudy 10 - - - -
17/10:00pm 26.9 S 8 11 1010.3 - 0.0 - Partly cloudy 10 - - - -
17/09:30pm 26.8 S 8 11 1010.1 - 0.0 - Partly cloudy 10 - - - -
17/09:00pm 26.8 S 9 10 1009.8 - 0.0 - - 10 - - - -
17/08:30pm 27.0 S 9 13 1009.6 - 0.0 - Partly cloudy 10 - - - -
17/08:00pm 27.2 S 10 12 1009.1 - 0.0 - Mostly clear 10 - - - -
17/07:30pm 27.6 S 10 13 1008.8 - 0.0 - Partly cloudy 10 - - - -
17/07:00pm 28.5 S 10 14 1008.4 - 0.0 - Partly cloudy 10 - - - -
17/06:30pm 28.5 S 10 12 1008.3 - 0.0 - Partly cloudy 10 - - - -
17/06:00pm 28.5 S 10 13 1008.2 - 0.0 - Partly cloudy 10 - - - -
17/05:30pm 28.8 S 10 13 1008.2 - 0.0 - Partly cloudy 10 - - - -
17/05:00pm 29.4 S 10 13 1008.2 - 0.0 - Mostly clear 10 - - - -
17/04:30pm 29.4 S 10 13 1008.6 - 0.0 - Partly cloudy 10 - - - -
17/04:00pm 29.5 SSW 11 14 1009.0 - 0.0 - Partly cloudy 10 - - - -
17/03:30pm 29.6 S 11 14 1009.0 - 0.0 - Partly cloudy 10 - - - -
17/03:00pm 29.4 S 11 14 1009.4 - 0.0 - Partly cloudy 10 - - - -
17/02:30pm 29.6 S 11 13 1009.6 - 0.0 - Partly cloudy 10 - - - -
17/02:00pm 29.6 S 11 14 1009.7 - 0.0 - - 10 - - - -
17/01:45pm 29.6 S 11 13 1009.9 - 0.0 - Partly cloudy 10 - - - -
17/01:30pm 29.4 S 11 13 1010.0 - 0.0 - Partly cloudy 6 - - - -
17/01:26pm 29.7 S 10 12 1010.0 - 0.0 - Partly cloudy 6 - - - -
17/01:00pm 30.1 S 11 13 1010.4 - 0.0 - Partly cloudy 10 - - - -
17/12:30pm 29.3 S 11 14 1010.5 - 0.0 - Partly cloudy 10 - - - -
17/12:00pm 28.5 S 11 14 1010.7 - 0.0 - Partly cloudy 10 - - - -
17/11:30am 29.6 S 12 15 1010.8 - 0.0 - Partly cloudy 10 - - - -
17/11:00am 29.5 S 12 15 1010.8 - 4.4 - Partly cloudy 10 - - - -
17/10:30am 28.5 S 12 15 1010.9 - 4.4 - Partly cloudy 10 - - - -
17/10:00am 28.4 S 11 13 1010.8 - 4.4 - Cloudy 10 - - - -
17/09:30am 26.8 SSE 10 13 1010.9 - 4.4 - Cloudy 10 - - - -
17/09:00am 25.9 S 13 16 1010.9 - 4.4 - Partly cloudy 10 - - - -
17/08:30am 26.0 S 11 14 1010.6 - 4.4 - Partly cloudy 10 - - - -
17/08:01am 25.7 S 16 20 1010.3 - 4.4 - Partly cloudy 10 - - - -
17/08:00am 25.6 S 16 20 1010.2 - 4.4 - Cloudy 10 - - - -
17/07:47am 24.6 ESE 6 13 1010.3 - 4.4 - Partly cloudy 10 - - - -
17/07:40am 24.4 E 6 9 1010.3 - 4.4 - Partly cloudy 8 - - - -
17/07:30am 24.3 E 6 9 1010.3 - 3.8 - Partly cloudy 2 - - - -
17/07:22am 24.7 ENE 4 8 1010.2 - 3.2 - Partly cloudy 5 - - - -
17/07:00am 24.5 E 9 11 1009.9 - 2.4 - Partly cloudy 10 - - - -
17/06:30am 25.2 SSE 9 12 1009.5 - 2.4 - Partly cloudy 10 - - - -
17/06:20am 24.5 SSE 7 10 1009.5 - 2.4 - Partly cloudy 10 - - - -
17/06:06am 24.0 SSE 10 13 1009.5 - 2.4 - Partly cloudy 6 - - - -
17/06:00am 24.2 SSE 11 13 1009.5 - 2.4 - Partly cloudy 10 - - - -
17/05:30am 24.0 CALM 0 0 1009.3 - 2.4 - Partly cloudy 10 - - - -
17/05:25am 24.1 CALM 0 0 1009.3 - 2.4 - Partly cloudy 10 - - - -
17/05:08am 24.0 ESE 4 6 1009.4 - 2.4 - Partly cloudy 5 - - - -
17/05:00am 24.0 ESE 4 7 1009.4 - 2.4 - Cloudy 10 - - - -
17/04:41am 24.0 E 7 9 1009.6 - 2.4 - Cloudy 10 - - - -
17/04:30am 23.9 E 7 10 1009.7 - 2.4 - Partly cloudy 5 - - - -
17/04:11am 23.8 E 6 11 1010.0 - 2.2 - Partly cloudy 6 - - - -
17/04:00am 23.9 ENE 5 9 1009.9 - 2.0 - Partly cloudy 10 - - - -
17/03:59am 23.9 ENE 5 9 1009.9 - 2.0 - Partly cloudy 10 - - - -
17/03:30am 23.7 SSE 6 8 1010.3 - 1.2 - Partly cloudy 3 - - - -
17/03:07am 24.2 SSE 10 14 1010.6 - 0.0 - Partly cloudy 6 - - - -
17/03:00am 24.7 SE 8 12 1010.6 - 0.0 - Partly cloudy 10 - - - -
17/02:30am 25.1 ESE 6 10 1010.7 - 0.0 - Partly cloudy 10 - - - -
17/02:00am 25.0 CALM 0 0 1011.0 - 0.0 - Cloudy 10 - - - -
17/01:30am 24.9 S 6 8 1011.5 - 0.0 - Partly cloudy 10 - - - -
17/01:00am 25.3 S 8 11 1011.7 - 0.0 - Partly cloudy 10 - - - -
17/12:30am 25.2 S 12 14 1011.9 - 0.0 - Partly cloudy 10 - - - -
17/12:00am 25.4 S 12 15 1011.8 - 0.0 - Partly cloudy 10 - - - -
 
Date/Time
WST
Temp
°C
Wind Pressure Rain since
9am
mm
Weather Cloud Vis
km
Sea
Height
m
Swell
Dir  Spd
kts
Gust
kts
hPa Trend Height
m
Period
s
Dir
16/11:30pm 25.4 S 12 16 1011.7 - 0.0 - - 10 - - - -
16/11:01pm 25.6 S 13 16 1011.4 - 0.0 - Partly cloudy 10 - - - -
16/11:00pm 25.6 S 13 16 1011.3 - 0.0 - Mostly clear 10 - - - -
16/10:47pm 25.9 S 14 17 1011.3 - 0.0 - Partly cloudy 10 - - - -
16/10:30pm 26.4 S 13 17 1011.2 - 0.0 - Partly cloudy 10 - - - -
16/10:00pm 26.8 S 12 15 1010.9 - 0.0 - Partly cloudy 10 - - - -
16/09:30pm 26.4 S 8 10 1010.7 - 0.0 - Partly cloudy 10 - - - -
16/09:09pm 26.5 S 8 10 1010.6 - 0.0 - Partly cloudy 10 - - - -
16/09:00pm 26.3 S 7 9 1010.5 - 0.0 - - 10 - - - -
16/08:52pm 26.4 SSE 7 8 1010.4 - 0.0 - - 5 - - - -
16/08:30pm 26.5 SSE 9 11 1010.2 - 0.0 - Partly cloudy 10 - - - -
16/08:00pm 26.6 SSE 10 12 1010.0 - 0.0 - Cloudy 10 - - - -
16/07:30pm 27.5 S 11 15 1009.8 - 0.0 - Partly cloudy 10 - - - -
16/07:00pm 27.5 S 12 15 1009.6 - 0.0 - Partly cloudy 10 - - - -
16/06:30pm 28.9 SSW 9 11 1009.4 - 0.0 - Partly cloudy 10 - - - -
16/06:00pm 29.4 SSW 9 12 1009.3 - 0.0 - - 10 - - - -
16/05:30pm 29.3 SSW 11 15 1009.4 - 0.0 - Partly cloudy 10 - - - -
16/05:00pm 29.6 SSW 8 12 1009.4 - 0.0 - Mostly clear 10 - - - -
16/04:30pm 29.9 SW 8 10 1009.9 - 0.0 - Mostly clear 10 - - - -
16/04:00pm 29.9 SSW 7 10 1010.3 - 0.0 - Mostly clear 10 - - - -
16/03:30pm 29.1 SW 7 9 1010.6 - 0.0 - Partly cloudy 10 - - - -

Other Formats:

Comma delimited format used in spreadsheet applications
http://www.bom.gov.au/fwo/IDW60701/IDW60701.96996.axf

JavaScript Object Notation format (JSON) in row-major order
http://www.bom.gov.au/fwo/IDW60701/IDW60701.96996.json